Time;durP1;ratioP1;P1;durP2;ratioP2;P2;SDS_P1;SDS_P2;PMS_P1;PMS_P2;Temp;Humidity;BMP_temperature;BMP_pressure;BME280_temperature;BME280_humidity;BME280_pressure;Samples;Min_cycle;Max_cycle;Signal;HPM_P1;HPM_P2
2022/10/12 00:00:52;;;;;;;11.45;4.57;;;5.90;99.90;;;;;;5033409;28;20041;-49
2022/10/12 00:03:19;;;;;;;7.22;3.95;;;5.90;99.90;;;;;;5033168;28;20052;-48
2022/10/12 00:05:45;;;;;;;9.38;4.25;;;5.90;99.90;;;;;;5033467;28;20110;-49
2022/10/12 00:08:11;;;;;;;11.45;4.45;;;5.90;99.90;;;;;;5033292;28;20112;-49
2022/10/12 00:10:41;;;;;;;9.90;4.07;;;6.00;99.90;;;;;;5033607;28;20384;-51
2022/10/12 00:13:08;;;;;;;7.00;3.88;;;6.00;99.90;;;;;;5033631;28;20029;-55
2022/10/12 00:15:39;;;;;;;8.63;3.90;;;5.90;99.90;;;;;;5032896;28;20025;-52
2022/10/12 00:18:05;;;;;;;10.95;4.43;;;6.00;99.90;;;;;;5033075;28;20115;-49
2022/10/12 00:20:31;;;;;;;11.77;4.57;;;6.00;99.90;;;;;;5033088;28;20044;-52
2022/10/12 00:22:57;;;;;;;8.00;3.63;;;6.00;99.90;;;;;;5033018;28;20393;-55
2022/10/12 00:25:23;;;;;;;9.07;3.97;;;6.00;99.90;;;;;;5032722;28;20029;-49
2022/10/12 00:27:48;;;;;;;12.40;3.35;;;5.90;99.90;;;;;;5032100;28;20057;-53
2022/10/12 00:30:14;;;;;;;8.32;3.60;;;6.00;99.90;;;;;;5032757;28;20025;-52
2022/10/12 00:32:39;;;;;;;8.38;3.42;;;6.00;99.90;;;;;;5032786;28;20446;-55
2022/10/12 00:35:05;;;;;;;9.20;4.15;;;6.00;99.90;;;;;;5032780;28;20373;-50
2022/10/12 00:37:31;;;;;;;11.90;3.97;;;6.10;99.90;;;;;;5032680;28;20024;-51
2022/10/12 00:39:57;;;;;;;9.32;3.70;;;6.00;99.90;;;;;;5032504;28;20036;-54
2022/10/12 00:42:22;;;;;;;10.55;3.97;;;6.00;99.90;;;;;;5032493;28;20033;-51
2022/10/12 00:44:50;;;;;;;8.85;3.78;;;6.00;99.90;;;;;;5032417;28;20492;-50
2022/10/12 00:47:22;;;;;;;11.63;4.47;;;6.00;99.90;;;;;;5032372;28;20029;-53
2022/10/12 00:49:59;;;;;;;10.32;4.40;;;6.00;99.90;;;;;;5032408;28;20072;-51
2022/10/12 00:52:33;;;;;;;9.90;4.32;;;5.90;99.90;;;;;;5032227;28;20033;-54
2022/10/12 00:55:00;;;;;;;8.35;4.00;;;5.80;99.90;;;;;;5032028;28;20438;-49
2022/10/12 00:57:26;;;;;;;8.13;4.03;;;5.80;99.90;;;;;;5032305;28;20377;-50
2022/10/12 00:59:59;;;;;;;8.13;3.97;;;5.80;99.90;;;;;;5032184;28;20029;-49
2022/10/12 01:02:27;;;;;;;8.45;3.67;;;5.80;99.90;;;;;;5032362;28;20041;-52
2022/10/12 01:04:53;;;;;;;8.98;4.22;;;5.80;99.90;;;;;;5032147;28;20029;-53
2022/10/12 01:07:19;;;;;;;9.40;4.07;;;5.80;99.90;;;;;;5032088;28;20049;-56
2022/10/12 01:09:45;;;;;;;11.30;4.35;;;5.70;99.90;;;;;;5032042;28;20026;-52
2022/10/12 01:12:11;;;;;;;8.13;3.70;;;5.60;99.90;;;;;;5031934;28;20396;-51
2022/10/12 01:14:36;;;;;;;9.38;3.72;;;5.60;99.90;;;;;;5032186;28;20040;-54
2022/10/12 01:17:50;;;;;;;13.10;4.90;;;5.50;99.90;;;;;;5032117;28;20021;-54
2022/10/12 01:20:39;;;;;;;10.70;4.60;;;5.40;99.90;;;;;;5019803;28;20497;-52
2022/10/12 01:23:17;;;;;;;7.82;3.70;;;5.40;99.90;;;;;;5032069;28;20127;-49
2022/10/12 01:26:10;;;;;;;8.95;4.10;;;5.30;99.90;;;;;;5031414;28;20108;-52
2022/10/12 01:28:38;;;;;;;10.13;4.13;;;5.30;99.90;;;;;;5031665;28;20104;-52
2022/10/12 01:31:22;;;;;;;9.18;3.65;;;5.20;99.90;;;;;;5031719;28;20056;-49
2022/10/12 01:33:55;;;;;;;11.18;4.03;;;5.20;99.90;;;;;;5031716;28;20022;-54
2022/10/12 01:36:41;;;;;;;7.82;4.00;;;5.20;99.90;;;;;;5031459;28;20422;-53
2022/10/12 01:39:20;;;;;;;6.57;4.07;;;5.20;99.90;;;;;;5030666;28;20033;-54
2022/10/12 01:41:47;;;;;;;8.10;4.00;;;5.10;99.90;;;;;;5031456;28;20488;-51
2022/10/12 01:44:20;;;;;;;7.50;4.35;;;5.10;99.90;;;;;;5031283;28;20079;-50
2022/10/12 01:46:46;;;;;;;8.73;3.97;;;5.20;99.90;;;;;;5031548;28;20030;-50
2022/10/12 01:49:15;;;;;;;11.82;3.88;;;5.20;99.90;;;;;;5031279;28;20534;-51
2022/10/12 01:52:02;;;;;;;11.60;4.40;;;5.20;99.90;;;;;;5031169;28;20029;-49
2022/10/12 01:54:40;;;;;;;7.63;3.80;;;5.20;99.90;;;;;;5031175;28;20026;-50
2022/10/12 01:57:17;;;;;;;10.10;3.20;;;5.30;99.90;;;;;;5018956;28;20104;-49
2022/10/12 02:00:09;;;;;;;11.35;4.30;;;5.30;99.90;;;;;;5029983;28;20025;-49
2022/10/12 02:03:13;;;;;;;6.53;3.22;;;5.30;99.90;;;;;;5031237;28;20123;-50
2022/10/12 02:06:04;;;;;;;8.48;2.80;;;5.30;99.90;;;;;;5022492;28;20493;-49
2022/10/12 02:08:45;;;;;;;6.95;2.78;;;5.40;99.90;;;;;;5030937;28;20076;-53
2022/10/12 02:11:18;;;;;;;7.35;2.88;;;5.40;99.90;;;;;;5031131;28;20021;-49
2022/10/12 02:14:06;;;;;;;10.35;3.40;;;5.50;99.90;;;;;;5030790;28;20036;-53
2022/10/12 02:16:38;;;;;;;10.93;3.47;;;5.50;99.90;;;;;;5030579;28;20038;-52
2022/10/12 02:19:05;;;;;;;10.30;3.03;;;5.60;99.90;;;;;;5030946;28;20018;-49
2022/10/12 02:21:32;;;;;;;10.35;2.60;;;5.60;99.90;;;;;;5031165;28;20044;-51
2022/10/12 02:24:02;;;;;;;7.43;2.83;;;5.60;99.90;;;;;;5030834;28;20009;-52
2022/10/12 02:26:30;;;;;;;7.07;2.60;;;5.70;99.90;;;;;;5023216;28;20040;-49
2022/10/12 02:28:59;;;;;;;6.93;2.60;;;5.70;99.90;;;;;;5030737;28;20056;-49
2022/10/12 02:31:34;;;;;;;8.02;2.50;;;5.80;99.90;;;;;;5030611;28;20638;-54
2022/10/12 02:34:01;;;;;;;8.80;3.05;;;5.90;99.90;;;;;;5030808;28;20484;-49
2022/10/12 02:37:01;;;;;;;6.65;2.63;;;5.90;99.90;;;;;;5030583;28;20034;-52
2022/10/12 02:39:32;;;;;;;5.53;2.65;;;6.00;99.90;;;;;;5030500;28;20030;-50
2022/10/12 02:42:04;;;;;;;7.07;2.80;;;6.00;99.90;;;;;;5030548;28;20040;-54
2022/10/12 02:44:33;;;;;;;7.85;2.40;;;6.00;99.90;;;;;;5030758;28;20060;-52
2022/10/12 02:47:00;;;;;;;7.63;2.42;;;6.00;99.90;;;;;;5030598;28;20453;-51
2022/10/12 02:49:29;;;;;;;7.75;2.60;;;6.00;99.90;;;;;;5031648;28;20032;-49
2022/10/12 02:51:56;;;;;;;5.32;1.88;;;6.10;99.90;;;;;;5034387;28;20421;-49
2022/10/12 02:54:21;;;;;;;4.75;2.47;;;6.10;99.90;;;;;;5034576;28;20112;-52
2022/10/12 02:56:47;;;;;;;6.55;2.55;;;6.10;99.90;;;;;;5034094;28;20117;-49
2022/10/12 02:59:15;;;;;;;8.85;3.15;;;6.10;99.90;;;;;;5034593;28;20101;-49
2022/10/12 03:01:41;;;;;;;12.15;3.65;;;6.00;99.90;;;;;;5033927;28;20041;-51
2022/10/12 03:04:07;;;;;;;6.35;2.85;;;5.90;99.90;;;;;;5034417;28;20025;-52
2022/10/12 03:06:32;;;;;;;7.53;3.05;;;5.80;99.90;;;;;;5034160;28;20085;-49
2022/10/12 03:08:58;;;;;;;6.03;2.45;;;5.80;99.90;;;;;;5033096;28;20049;-49
2022/10/12 03:11:24;;;;;;;5.00;2.20;;;5.80;99.90;;;;;;5034519;28;20025;-52
2022/10/12 03:13:55;;;;;;;7.68;3.35;;;5.70;99.90;;;;;;5034501;28;20026;-50
2022/10/12 03:16:22;;;;;;;10.40;3.17;;;5.70;99.90;;;;;;5034739;28;20480;-49
2022/10/12 03:18:47;;;;;;;5.10;2.13;;;5.70;99.90;;;;;;5034617;28;20041;-49
2022/10/12 03:21:13;;;;;;;8.80;2.67;;;5.70;99.90;;;;;;5033900;28;20503;-51
2022/10/12 03:23:39;;;;;;;6.78;2.45;;;5.70;99.90;;;;;;5033953;28;20038;-49
2022/10/12 03:26:05;;;;;;;6.72;2.60;;;5.60;99.90;;;;;;5033717;28;20052;-53
2022/10/12 03:28:31;;;;;;;7.22;2.90;;;5.70;99.90;;;;;;5034152;28;20025;-54
2022/10/12 03:30:57;;;;;;;5.70;2.83;;;5.70;99.90;;;;;;5034035;28;20366;-49
2022/10/12 03:33:23;;;;;;;5.22;2.47;;;5.70;99.90;;;;;;5033762;28;20079;-52
2022/10/12 03:35:49;;;;;;;7.57;2.72;;;5.70;99.90;;;;;;5033519;28;20018;-49
2022/10/12 03:38:16;;;;;;;8.77;2.45;;;5.70;99.90;;;;;;5033761;28;20032;-54
2022/10/12 03:40:42;;;;;;;8.32;2.53;;;5.70;99.90;;;;;;5033622;28;20396;-52
2022/10/12 03:43:08;;;;;;;8.82;2.35;;;5.80;99.90;;;;;;5033753;28;20037;-54
2022/10/12 03:45:34;;;;;;;8.05;2.85;;;5.80;99.90;;;;;;5032005;28;20128;-49
2022/10/12 03:48:01;;;;;;;8.85;2.92;;;5.90;99.90;;;;;;5032147;28;20013;-52
2022/10/12 03:50:26;;;;;;;7.82;2.58;;;5.90;99.90;;;;;;5032235;28;20369;-50
2022/10/12 03:52:52;;;;;;;8.65;2.63;;;6.00;99.90;;;;;;5033588;28;20540;-54
2022/10/12 03:55:18;;;;;;;7.50;2.70;;;6.10;99.90;;;;;;5033254;28;20017;-52
2022/10/12 03:57:44;;;;;;;6.80;2.55;;;6.20;99.90;;;;;;5033558;28;20026;-50
2022/10/12 04:00:11;;;;;;;7.47;2.63;;;6.20;99.90;;;;;;5033531;28;20033;-50
2022/10/12 04:02:37;;;;;;;8.70;3.00;;;6.30;99.90;;;;;;5032304;28;20622;-55
2022/10/12 04:05:03;;;;;;;7.10;3.20;;;6.30;99.90;;;;;;5032965;28;20104;-54
2022/10/12 04:07:28;;;;;;;6.80;2.92;;;6.30;99.90;;;;;;5033083;28;20108;-49
2022/10/12 04:09:54;;;;;;;6.20;3.20;;;6.30;99.90;;;;;;5033212;28;20088;-53
2022/10/12 04:12:19;;;;;;;7.68;2.70;;;6.20;99.90;;;;;;5033170;28;20025;-55
2022/10/12 04:14:45;;;;;;;8.63;3.30;;;6.30;99.90;;;;;;5032939;28;20033;-48
2022/10/12 04:17:11;;;;;;;8.90;3.20;;;6.20;99.90;;;;;;5033206;28;20033;-54
2022/10/12 04:19:36;;;;;;;5.88;2.85;;;6.30;99.90;;;;;;5032790;28;20033;-49
2022/10/12 04:22:02;;;;;;;9.30;2.75;;;6.20;99.90;;;;;;5033070;28;20037;-53
2022/10/12 04:24:28;;;;;;;9.93;2.92;;;6.20;99.90;;;;;;5032696;28;20057;-53
2022/10/12 04:26:53;;;;;;;7.88;2.78;;;6.20;99.90;;;;;;5033072;28;20051;-55
2022/10/12 04:29:19;;;;;;;9.98;2.88;;;6.20;99.90;;;;;;5032932;28;20057;-56
2022/10/12 04:31:44;;;;;;;4.28;2.13;;;6.30;99.90;;;;;;5032739;28;20056;-49
2022/10/12 04:34:10;;;;;;;13.43;3.03;;;6.30;99.90;;;;;;5032745;28;20025;-51
2022/10/12 04:36:36;;;;;;;11.35;2.78;;;6.30;99.90;;;;;;5032592;28;20061;-51
2022/10/12 04:39:02;;;;;;;11.80;3.70;;;6.40;99.90;;;;;;5032679;28;20018;-52
2022/10/12 04:41:28;;;;;;;7.85;3.22;;;6.50;99.90;;;;;;5031318;28;20112;-53
2022/10/12 04:43:53;;;;;;;7.10;2.60;;;6.60;99.90;;;;;;5032786;28;20018;-52
2022/10/12 04:46:19;;;;;;;7.80;2.67;;;6.60;99.90;;;;;;5032447;28;20481;-52
2022/10/12 04:48:44;;;;;;;6.07;2.53;;;6.70;99.90;;;;;;5032377;28;20017;-50
2022/10/12 04:51:10;;;;;;;4.65;2.20;;;6.70;99.90;;;;;;5032435;28;20033;-52
2022/10/12 04:53:36;;;;;;;9.95;2.97;;;6.70;99.90;;;;;;5031824;28;20145;-49
2022/10/12 04:56:03;;;;;;;6.40;2.28;;;6.70;99.90;;;;;;5032139;28;20021;-54
2022/10/12 04:58:30;;;;;;;6.38;2.35;;;6.80;99.90;;;;;;5032174;28;20025;-49
2022/10/12 05:00:55;;;;;;;6.05;2.22;;;6.70;99.90;;;;;;5032094;28;20030;-50
2022/10/12 05:03:21;;;;;;;5.22;2.20;;;6.80;99.90;;;;;;5031971;28;20090;-55
2022/10/12 05:05:46;;;;;;;8.07;2.60;;;6.80;99.90;;;;;;5031877;28;20084;-52
2022/10/12 05:08:12;;;;;;;4.40;2.10;;;6.80;99.90;;;;;;5032112;28;20038;-56
2022/10/12 05:10:38;;;;;;;6.40;2.42;;;6.80;99.90;;;;;;5032012;28;20032;-54
2022/10/12 05:13:04;;;;;;;7.50;2.63;;;6.90;99.90;;;;;;5031994;28;20034;-55
2022/10/12 05:15:30;;;;;;;7.82;2.38;;;6.90;99.90;;;;;;5031783;28;20021;-49
2022/10/12 05:17:55;;;;;;;4.72;2.25;;;6.90;99.90;;;;;;5031875;28;20024;-51
2022/10/12 05:20:21;;;;;;;11.20;2.10;;;6.90;99.90;;;;;;5031559;28;20033;-55
2022/10/12 05:22:47;;;;;;;5.97;2.25;;;6.90;99.90;;;;;;5031529;28;20053;-49
2022/10/12 05:25:12;;;;;;;6.55;2.33;;;6.90;99.90;;;;;;5031484;28;20123;-51
2022/10/12 05:27:38;;;;;;;7.00;2.42;;;7.00;99.90;;;;;;5031537;28;20112;-54
2022/10/12 05:30:05;;;;;;;5.18;1.73;;;7.00;99.90;;;;;;5031689;28;20017;-53
2022/10/12 05:32:31;;;;;;;6.22;1.80;;;7.00;99.90;;;;;;5031354;28;20029;-52
2022/10/12 05:34:56;;;;;;;6.13;1.85;;;7.00;99.90;;;;;;5031526;28;20034;-54
2022/10/12 05:37:22;;;;;;;7.93;2.13;;;7.00;99.90;;;;;;5031501;28;20036;-53
2022/10/12 05:39:48;;;;;;;4.03;2.00;;;7.00;99.90;;;;;;5031544;28;20029;-50
2022/10/12 05:42:14;;;;;;;7.88;2.53;;;6.90;99.90;;;;;;5031396;28;20438;-51
2022/10/12 05:44:40;;;;;;;6.43;2.50;;;6.80;99.90;;;;;;5031389;28;20018;-49
2022/10/12 05:47:06;;;;;;;7.63;2.40;;;6.70;99.90;;;;;;5031307;28;20044;-49
2022/10/12 05:49:32;;;;;;;5.90;2.40;;;6.60;99.90;;;;;;5031359;28;20105;-52
2022/10/12 05:51:57;;;;;;;9.07;2.83;;;6.60;99.90;;;;;;5031167;28;20025;-50
2022/10/12 05:54:23;;;;;;;6.70;2.40;;;6.40;99.90;;;;;;5030825;28;20052;-50
2022/10/12 05:56:49;;;;;;;10.25;2.65;;;6.40;99.90;;;;;;5031289;28;20037;-52
2022/10/12 05:59:14;;;;;;;5.88;2.60;;;6.40;99.90;;;;;;5031182;28;20017;-53
2022/10/12 06:01:40;;;;;;;3.85;2.00;;;6.50;99.90;;;;;;5031089;28;20077;-54
2022/10/12 06:04:05;;;;;;;7.28;2.60;;;6.50;99.90;;;;;;5031054;28;20018;-49
2022/10/12 06:06:31;;;;;;;7.45;2.47;;;6.50;99.90;;;;;;5030899;28;20050;-52
2022/10/12 06:08:57;;;;;;;7.72;2.30;;;6.50;99.90;;;;;;5030951;28;20037;-51
2022/10/12 06:11:22;;;;;;;7.40;2.28;;;6.50;99.90;;;;;;5031201;28;20033;-50
2022/10/12 06:13:48;;;;;;;7.07;2.75;;;6.50;99.90;;;;;;5030829;28;20028;-49
2022/10/12 06:16:14;;;;;;;7.43;2.40;;;6.50;99.90;;;;;;5030816;28;20033;-49
2022/10/12 06:18:39;;;;;;;8.98;2.58;;;6.60;99.90;;;;;;5029732;28;20436;-49
2022/10/12 06:21:05;;;;;;;6.18;2.42;;;6.60;99.90;;;;;;5031011;28;20048;-49
2022/10/12 06:23:31;;;;;;;8.45;3.17;;;6.60;99.90;;;;;;5031059;28;20112;-56
2022/10/12 06:25:56;;;;;;;7.97;2.70;;;6.70;99.90;;;;;;5031014;28;20025;-61
2022/10/12 06:28:22;;;;;;;7.10;2.25;;;6.70;99.90;;;;;;5031328;28;20087;-50
2022/10/12 06:30:58;;;;;;;5.13;2.30;;;6.70;99.90;;;;;;5029672;28;20076;-52
2022/10/12 06:33:24;;;;;;;4.35;2.17;;;6.50;99.90;;;;;;5031191;28;20273;-55
2022/10/12 06:35:50;;;;;;;7.22;2.85;;;6.30;99.90;;;;;;5030739;28;20048;-50
2022/10/12 06:38:16;;;;;;;6.50;2.38;;;6.30;99.90;;;;;;5030573;28;20033;-49
2022/10/12 06:40:42;;;;;;;4.90;2.22;;;6.40;99.90;;;;;;5030706;28;20032;-50
2022/10/12 06:43:08;;;;;;;9.68;2.97;;;6.50;99.90;;;;;;5030521;28;20400;-52
2022/10/12 06:45:33;;;;;;;7.20;2.40;;;6.60;99.90;;;;;;5030647;28;20040;-49
2022/10/12 06:47:59;;;;;;;12.32;4.07;;;6.70;99.90;;;;;;5030553;28;20094;-53
2022/10/12 06:50:25;;;;;;;8.07;3.58;;;6.90;99.90;;;;;;5030746;28;20036;-55
2022/10/12 06:52:51;;;;;;;10.05;3.17;;;7.00;99.90;;;;;;5030761;28;20029;-52
2022/10/12 06:55:17;;;;;;;7.75;2.92;;;7.10;99.90;;;;;;5030036;28;20025;-53
2022/10/12 06:57:43;;;;;;;6.78;2.58;;;7.20;99.90;;;;;;5030664;28;20085;-52
2022/10/12 07:00:09;;;;;;;9.65;3.20;;;7.30;99.90;;;;;;5030363;28;20022;-49
2022/10/12 07:02:34;;;;;;;8.95;2.70;;;7.40;99.90;;;;;;5029847;28;20312;-55
2022/10/12 07:05:01;;;;;;;7.00;2.60;;;7.50;99.90;;;;;;5030509;28;20434;-50
2022/10/12 07:07:34;;;;;;;5.50;2.80;;;7.60;99.90;;;;;;5030232;28;20045;-52
2022/10/12 07:10:01;;;;;;;5.95;2.50;;;7.70;99.90;;;;;;5030262;28;20021;-52
2022/10/12 07:12:27;;;;;;;10.30;3.05;;;7.80;99.90;;;;;;5030175;28;20392;-55
2022/10/12 07:14:56;;;;;;;6.90;2.60;;;7.80;99.90;;;;;;5030393;28;20100;-49
2022/10/12 07:17:22;;;;;;;8.00;3.38;;;7.90;99.90;;;;;;5030241;28;20048;-54
2022/10/12 07:19:47;;;;;;;6.35;2.60;;;7.90;99.90;;;;;;5030186;28;20025;-54
2022/10/12 07:22:13;;;;;;;6.38;2.70;;;7.90;99.90;;;;;;5030084;28;20037;-53
2022/10/12 07:24:39;;;;;;;10.80;3.10;;;7.90;99.90;;;;;;5028637;28;20369;-51
2022/10/12 07:27:07;;;;;;;8.07;2.70;;;7.90;99.90;;;;;;5028850;28;20030;-50
2022/10/12 07:29:33;;;;;;;5.65;2.40;;;7.90;99.90;;;;;;5029165;28;20660;-50
2022/10/12 07:31:59;;;;;;;6.63;2.45;;;8.00;99.90;;;;;;5029887;28;20048;-49
2022/10/12 07:34:26;;;;;;;10.82;3.25;;;8.10;99.90;;;;;;5029681;28;20093;-50
2022/10/12 07:36:51;;;;;;;9.75;3.95;;;8.10;99.90;;;;;;5029889;28;20033;-53
2022/10/12 07:39:18;;;;;;;15.40;5.97;;;8.20;99.90;;;;;;5033209;28;20101;-51
2022/10/12 07:41:44;;;;;;;18.90;7.10;;;8.30;99.90;;;;;;5031387;28;20072;-52
2022/10/12 07:44:10;;;;;;;12.95;6.50;;;8.60;99.90;;;;;;5033011;28;20060;-50
2022/10/12 07:46:36;;;;;;;10.68;5.95;;;8.70;99.90;;;;;;5031212;28;20018;-57
2022/10/12 07:49:01;;;;;;;13.75;4.93;;;8.90;99.90;;;;;;5033519;28;20049;-51
2022/10/12 07:51:28;;;;;;;8.80;2.92;;;9.20;99.90;;;;;;5033238;28;20493;-55
2022/10/12 07:53:53;;;;;;;8.57;2.70;;;9.20;99.90;;;;;;5033071;28;20048;-50
2022/10/12 07:56:19;;;;;;;6.35;2.63;;;9.30;99.90;;;;;;5033019;28;20380;-51
2022/10/12 07:58:55;;;;;;;9.35;3.20;;;9.30;99.90;;;;;;5033271;28;20487;-49
2022/10/12 08:01:23;;;;;;;10.40;3.67;;;9.40;99.90;;;;;;5031606;28;20060;-53
2022/10/12 08:03:49;;;;;;;6.47;3.17;;;9.50;99.90;;;;;;5033019;28;20033;-48
2022/10/12 08:06:20;;;;;;;10.70;3.40;;;9.60;99.90;;;;;;5032879;28;20120;-52
2022/10/12 08:08:46;;;;;;;8.60;2.70;;;9.70;99.90;;;;;;5032860;28;20021;-52
2022/10/12 08:11:12;;;;;;;10.13;3.10;;;9.70;99.90;;;;;;5032339;28;20079;-52
2022/10/12 08:13:39;;;;;;;11.82;3.33;;;9.80;99.90;;;;;;5032716;28;20093;-57
2022/10/12 08:16:08;;;;;;;12.93;3.50;;;9.90;99.90;;;;;;5033064;28;20025;-52
2022/10/12 08:18:34;;;;;;;12.90;3.35;;;10.00;99.90;;;;;;5032903;28;20033;-51
2022/10/12 08:21:02;;;;;;;9.63;3.33;;;10.10;99.90;;;;;;5032853;28;20052;-50
2022/10/12 08:23:27;;;;;;;9.00;3.08;;;10.10;99.90;;;;;;5032450;28;20105;-50
2022/10/12 08:25:55;;;;;;;11.68;2.92;;;10.30;99.90;;;;;;5032516;28;20105;-53
2022/10/12 08:28:21;;;;;;;11.73;3.10;;;10.60;99.90;;;;;;5032810;28;20429;-49
2022/10/12 08:30:47;;;;;;;12.50;3.75;;;11.10;99.90;;;;;;5032132;28;20469;-52
2022/10/12 08:33:14;;;;;;;7.72;3.30;;;11.70;99.90;;;;;;5032932;28;20029;-52
2022/10/12 08:35:40;;;;;;;10.63;3.25;;;12.10;99.90;;;;;;5032645;28;20176;-53
2022/10/12 08:38:07;;;;;;;9.43;3.17;;;12.40;99.90;;;;;;5021169;28;20021;-53
2022/10/12 08:40:43;;;;;;;10.52;3.40;;;12.50;99.90;;;;;;5032401;28;20074;-55
2022/10/12 08:43:28;;;;;;;6.30;3.28;;;12.60;99.90;;;;;;5032493;28;20017;-54
2022/10/12 08:45:57;;;;;;;8.32;3.33;;;12.70;99.90;;;;;;5032457;28;20063;-51
2022/10/12 08:48:53;;;;;;;9.05;3.25;;;12.70;99.90;;;;;;5031739;28;20084;-51
2022/10/12 08:51:22;;;;;;;6.75;3.15;;;12.80;99.90;;;;;;5028513;28;20397;-51
2022/10/12 08:53:58;;;;;;;8.50;3.35;;;13.30;99.90;;;;;;5031649;28;20049;-53
2022/10/12 08:56:23;;;;;;;9.20;3.08;;;14.90;99.90;;;;;;5032221;28;20040;-55
2022/10/12 08:58:51;;;;;;;10.20;3.03;;;16.80;99.90;;;;;;5029410;28;20030;-51
2022/10/12 09:01:56;;;;;;;13.50;4.38;;;18.60;99.90;;;;;;5029836;28;20071;-55
2022/10/12 09:04:55;;;;;;;11.63;3.17;;;20.60;99.90;;;;;;5017705;28;20048;-51
2022/10/12 09:07:33;;;;;;;6.82;2.97;;;22.70;98.40;;;;;;5021627;28;20111;-49
2022/10/12 09:10:18;;;;;;;9.82;2.80;;;24.00;96.40;;;;;;5029657;28;20033;-50
2022/10/12 09:12:52;;;;;;;8.23;2.35;;;24.60;91.00;;;;;;5034782;28;20184;-48
2022/10/12 09:15:23;;;;;;;6.75;2.30;;;24.90;90.90;;;;;;5026743;28;20144;-51
2022/10/12 09:17:54;;;;;;;11.23;2.97;;;23.70;91.30;;;;;;5028478;28;20029;-49
2022/10/12 09:20:29;;;;;;;10.07;2.55;;;22.10;91.10;;;;;;5027730;28;20657;-48
2022/10/12 09:23:10;;;;;;;11.05;2.80;;;21.80;92.80;;;;;;5029038;28;20082;-50
2022/10/12 09:25:37;;;;;;;7.15;2.42;;;20.90;92.90;;;;;;5026930;28;20488;-48
2022/10/12 09:28:16;;;;;;;7.82;2.40;;;21.60;94.40;;;;;;5030776;28;20400;-48
2022/10/12 09:30:57;;;;;;;9.43;3.45;;;22.40;93.60;;;;;;5030737;28;20122;-52
2022/10/12 09:33:27;;;;;;;9.27;3.75;;;23.30;91.80;;;;;;5028770;28;20025;-50
2022/10/12 09:35:54;;;;;;;10.55;4.13;;;23.00;91.30;;;;;;5029327;28;20029;-51
2022/10/12 09:38:20;;;;;;;7.10;3.28;;;22.50;91.40;;;;;;5030221;28;20113;-53
2022/10/12 09:40:46;;;;;;;10.13;3.20;;;21.90;91.20;;;;;;5030588;28;20156;-51
2022/10/12 09:43:13;;;;;;;10.07;3.25;;;21.20;92.60;;;;;;5031028;28;20037;-50
2022/10/12 09:45:39;;;;;;;8.73;3.08;;;20.90;94.00;;;;;;5030901;28;20021;-55
2022/10/12 09:48:12;;;;;;;11.13;4.00;;;22.20;92.60;;;;;;5030409;28;20479;-55
2022/10/12 09:50:59;;;;;;;11.43;3.28;;;24.00;90.90;;;;;;5030034;28;20033;-48
2022/10/12 09:53:39;;;;;;;7.78;2.47;;;24.80;85.50;;;;;;5026503;28;20032;-54
2022/10/12 09:56:29;;;;;;;9.18;2.53;;;25.90;83.60;;;;;;5031084;28;20033;-53
2022/10/12 09:58:59;;;;;;;9.68;2.47;;;26.30;81.60;;;;;;5026252;28;20025;-51
2022/10/12 10:01:30;;;;;;;7.85;2.47;;;26.20;78.50;;;;;;5028571;28;20041;-55
2022/10/12 10:04:25;;;;;;;6.28;2.28;;;24.70;80.10;;;;;;5029726;28;20033;-48
2022/10/12 10:06:51;;;;;;;9.32;2.15;;;22.90;82.40;;;;;;5023009;28;20053;-46
2022/10/12 10:09:30;;;;;;;8.85;2.30;;;21.90;87.60;;;;;;5030166;28;20068;-52
2022/10/12 10:11:57;;;;;;;7.05;2.13;;;20.70;90.40;;;;;;5029804;28;20032;-51
2022/10/12 10:14:23;;;;;;;7.95;2.53;;;20.10;92.10;;;;;;5030690;28;20029;-54
2022/10/12 10:16:50;;;;;;;5.82;2.08;;;19.60;93.00;;;;;;5030942;28;20049;-51
2022/10/12 10:19:18;;;;;;;9.82;2.63;;;19.50;93.40;;;;;;5030519;28;20542;-47
2022/10/12 10:21:44;;;;;;;8.50;2.10;;;19.40;93.70;;;;;;5030108;28;20073;-50
2022/10/12 10:24:30;;;;;;;6.88;1.95;;;19.20;94.90;;;;;;5030364;28;20049;-52
2022/10/12 10:27:02;;;;;;;6.80;2.05;;;19.00;94.80;;;;;;5029680;28;20509;-48
2022/10/12 10:29:33;;;;;;;10.38;2.35;;;18.70;95.80;;;;;;5030492;28;20417;-47
2022/10/12 10:32:27;;;;;;;7.35;1.92;;;18.80;96.60;;;;;;5030880;28;20071;-50
2022/10/12 10:35:02;;;;;;;10.40;2.20;;;18.90;96.20;;;;;;5026990;28;20029;-47
2022/10/12 10:37:29;;;;;;;6.97;1.63;;;18.80;95.90;;;;;;5030543;28;20025;-47
2022/10/12 10:39:57;;;;;;;7.75;1.88;;;19.50;95.80;;;;;;5030417;28;20025;-50
2022/10/12 10:42:30;;;;;;;7.80;1.90;;;19.50;94.80;;;;;;5029349;28;20121;-48
2022/10/12 10:45:06;;;;;;;7.60;1.85;;;18.90;96.30;;;;;;5030367;28;20026;-52
2022/10/12 10:47:33;;;;;;;7.95;1.88;;;18.60;96.30;;;;;;5029714;28;20489;-48
2022/10/12 10:50:12;;;;;;;6.50;1.88;;;18.20;97.30;;;;;;5028918;28;20065;-47
2022/10/12 10:52:39;;;;;;;7.07;1.70;;;17.90;99.90;;;;;;5026942;28;20518;-49
2022/10/12 10:55:18;;;;;;;10.27;1.75;;;17.70;99.00;;;;;;5026991;28;20060;-50
2022/10/12 10:57:47;;;;;;;;;;;17.40;99.40;;;;;;5029302;28;20040;-54
2022/10/12 11:00:17;;;;;;;10.35;2.05;;;17.50;99.90;;;;;;5027749;28;19996;-54
2022/10/12 11:02:53;;;;;;;6.97;1.60;;;17.60;99.90;;;;;;5029810;28;20041;-49
2022/10/12 11:05:38;;;;;;;7.38;1.52;;;17.70;99.90;;;;;;5029226;28;20079;-51
2022/10/12 11:08:20;;;;;;;11.35;1.77;;;17.80;99.90;;;;;;5029565;28;20033;-50
2022/10/12 11:11:27;;;;;;;8.23;1.70;;;17.80;99.90;;;;;;5030738;28;20031;-44
2022/10/12 11:14:01;;;;;;;7.38;1.70;;;17.90;99.00;;;;;;5005408;28;20125;-46
2022/10/12 11:16:37;;;;;;;5.90;2.00;;;18.20;99.60;;;;;;5029019;28;20431;-49
2022/10/12 11:19:18;;;;;;;12.55;1.80;;;18.60;98.40;;;;;;5032798;28;20025;-49
2022/10/12 11:21:49;;;;;;;7.13;1.77;;;18.90;99.10;;;;;;5031827;28;20052;-55
2022/10/12 11:24:46;;;;;;;5.85;2.13;;;19.20;97.50;;;;;;5030259;28;20498;-49
2022/10/12 11:27:30;;;;;;;9.02;2.40;;;19.40;97.80;;;;;;5031079;28;20014;-55
2022/10/12 11:30:00;;;;;;;6.63;2.00;;;19.50;96.60;;;;;;5029916;28;20036;-49
2022/10/12 11:32:33;;;;;;;;;;;20.10;97.60;;;;;;5032136;28;20029;-49
2022/10/12 11:35:02;;;;;;;8.82;2.05;;;20.90;96.60;;;;;;5027881;28;19915;-48
2022/10/12 11:37:52;;;;;;;7.38;1.98;;;21.80;93.60;;;;;;5032771;28;20519;-55
2022/10/12 11:40:24;;;;;;;5.03;1.83;;;22.00;93.30;;;;;;5029886;28;20032;-54
2022/10/12 11:42:52;;;;;;;9.45;2.33;;;21.40;92.70;;;;;;5032645;28;20437;-56
2022/10/12 11:45:23;;;;;;;6.28;2.00;;;20.80;94.70;;;;;;5032709;28;20026;-50
2022/10/12 11:47:55;;;;;;;5.88;1.88;;;20.30;94.60;;;;;;5028369;28;20547;-48
2022/10/12 11:50:50;;;;;;;7.00;1.95;;;19.60;95.30;;;;;;5032109;28;20444;-50
2022/10/12 11:53:25;;;;;;;4.70;1.60;;;19.60;97.60;;;;;;5025385;28;20414;-52
2022/10/12 11:56:10;;;;;;;8.77;2.00;;;19.60;97.30;;;;;;5031025;28;20025;-54
2022/10/12 11:58:39;;;;;;;6.82;1.65;;;19.70;96.00;;;;;;5031233;28;20037;-52
2022/10/12 12:01:28;;;;;;;8.30;1.50;;;19.90;96.90;;;;;;5024772;28;20583;-57
2022/10/12 12:04:14;;;;;;;4.57;1.57;;;20.60;96.00;;;;;;5028468;28;20029;-50
2022/10/12 12:07:24;;;;;;;6.03;1.80;;;20.50;94.90;;;;;;5030754;28;20291;-52
2022/10/12 12:09:50;;;;;;;7.28;1.58;;;19.90;96.70;;;;;;5030583;28;20026;-50
2022/10/12 12:12:22;;;;;;;6.47;1.67;;;19.80;96.50;;;;;;5031618;28;20516;-45
2022/10/12 12:14:54;;;;;;;5.20;1.25;;;20.10;97.90;;;;;;5030912;28;20052;-54
2022/10/12 12:17:19;;;;;;;5.45;1.75;;;20.50;96.50;;;;;;5027517;28;20018;-49
2022/10/12 12:19:53;;;;;;;7.53;1.40;;;20.40;96.70;;;;;;5031044;28;20091;-49
2022/10/12 12:22:43;;;;;;;5.13;1.60;;;20.00;97.20;;;;;;5029002;28;20075;-54
2022/10/12 12:25:11;;;;;;;5.35;1.60;;;19.40;97.10;;;;;;5030002;28;20057;-50
2022/10/12 12:27:37;;;;;;;5.53;1.63;;;18.80;98.00;;;;;;5029069;28;20060;-48
2022/10/12 12:30:17;;;;;;;5.07;1.48;;;18.70;99.40;;;;;;5031260;28;20053;-46
2022/10/12 12:32:46;;;;;;;8.32;1.63;;;18.50;99.20;;;;;;5031318;28;20037;-45
2022/10/12 12:35:49;;;;;;;5.72;1.60;;;18.50;99.60;;;;;;5026270;28;20076;-44
2022/10/12 12:38:21;;;;;;;4.95;1.35;;;18.20;99.90;;;;;;5029220;28;20524;-46
2022/10/12 12:40:58;;;;;;;7.03;1.40;;;18.10;99.90;;;;;;5028398;28;20036;-45
2022/10/12 12:43:29;;;;;;;6.75;1.55;;;18.10;99.90;;;;;;5030099;28;20040;-49
2022/10/12 12:45:59;;;;;;;4.53;1.25;;;18.00;99.90;;;;;;5029530;28;20469;-46
2022/10/12 12:48:54;;;;;;;4.35;1.13;;;18.10;99.90;;;;;;5029869;28;20034;-50
2022/10/12 12:51:24;;;;;;;5.47;1.70;;;18.10;99.90;;;;;;5029731;28;20065;-48
2022/10/12 12:53:57;;;;;;;4.80;1.40;;;18.20;99.90;;;;;;5029805;28;20072;-58
2022/10/12 12:56:28;;;;;;;9.13;1.55;;;18.10;99.90;;;;;;5029212;28;20025;-48
2022/10/12 12:59:22;;;;;;;6.35;1.77;;;18.10;99.90;;;;;;5031507;28;20053;-51
2022/10/12 13:02:01;;;;;;;8.07;1.98;;;18.10;99.90;;;;;;5031467;28;20128;-53
2022/10/12 13:04:48;;;;;;;6.93;1.70;;;18.10;99.90;;;;;;5031407;28;20037;-46
2022/10/12 13:07:32;;;;;;;7.22;1.75;;;18.20;99.90;;;;;;5023115;28;20082;-45
2022/10/12 13:10:11;;;;;;;7.13;1.40;;;18.40;99.90;;;;;;5029376;28;20397;-44
2022/10/12 13:12:48;;;;;;;4.35;1.60;;;18.50;99.90;;;;;;5028721;28;20029;-49